sensor_id;sensor_type;location;lat;lon;timestamp;P1;durP1;ratioP1;P2;durP2;ratioP2
65234;SDS011;51820;48.374;10.930;2022-08-18T00:01:22;8.23;;;4.70;;
65234;SDS011;51820;48.374;10.930;2022-08-18T00:03:53;8.85;;;4.75;;
65234;SDS011;51820;48.374;10.930;2022-08-18T00:06:29;10.17;;;5.00;;
65234;SDS011;51820;48.374;10.930;2022-08-18T00:08:57;8.68;;;4.72;;
65234;SDS011;51820;48.374;10.930;2022-08-18T00:11:27;10.02;;;4.88;;
65234;SDS011;51820;48.374;10.930;2022-08-18T00:14:09;9.38;;;4.90;;
65234;SDS011;51820;48.374;10.930;2022-08-18T00:17:07;11.07;;;4.90;;
65234;SDS011;51820;48.374;10.930;2022-08-18T00:19:35;7.17;;;3.87;;
65234;SDS011;51820;48.374;10.930;2022-08-18T00:22:14;8.00;;;4.30;;
65234;SDS011;51820;48.374;10.930;2022-08-18T00:24:45;9.10;;;4.38;;
65234;SDS011;51820;48.374;10.930;2022-08-18T00:27:16;8.63;;;4.50;;
65234;SDS011;51820;48.374;10.930;2022-08-18T00:29:47;8.60;;;4.82;;
65234;SDS011;51820;48.374;10.930;2022-08-18T00:32:18;8.83;;;4.70;;
65234;SDS011;51820;48.374;10.930;2022-08-18T00:34:48;9.05;;;4.55;;
65234;SDS011;51820;48.374;10.930;2022-08-18T00:37:16;7.57;;;4.68;;
65234;SDS011;51820;48.374;10.930;2022-08-18T00:39:45;8.63;;;4.32;;
65234;SDS011;51820;48.374;10.930;2022-08-18T00:42:14;10.15;;;4.82;;
65234;SDS011;51820;48.374;10.930;2022-08-18T00:44:57;9.03;;;4.53;;
65234;SDS011;51820;48.374;10.930;2022-08-18T00:47:29;9.35;;;4.63;;
65234;SDS011;51820;48.374;10.930;2022-08-18T00:50:18;9.18;;;4.90;;
65234;SDS011;51820;48.374;10.930;2022-08-18T00:52:51;9.05;;;4.82;;
65234;SDS011;51820;48.374;10.930;2022-08-18T00:55:22;9.57;;;4.90;;
65234;SDS011;51820;48.374;10.930;2022-08-18T00:57:53;9.27;;;4.77;;
65234;SDS011;51820;48.374;10.930;2022-08-18T01:00:27;10.63;;;5.13;;
65234;SDS011;51820;48.374;10.930;2022-08-18T01:02:57;9.07;;;5.22;;
65234;SDS011;51820;48.374;10.930;2022-08-18T01:05:30;10.93;;;4.93;;
65234;SDS011;51820;48.374;10.930;2022-08-18T01:08:06;8.63;;;5.05;;
65234;SDS011;51820;48.374;10.930;2022-08-18T01:10:37;10.37;;;5.00;;
65234;SDS011;51820;48.374;10.930;2022-08-18T01:13:06;9.25;;;4.68;;
65234;SDS011;51820;48.374;10.930;2022-08-18T01:15:35;9.80;;;4.43;;
65234;SDS011;51820;48.374;10.930;2022-08-18T01:18:05;9.85;;;5.10;;
65234;SDS011;51820;48.374;10.930;2022-08-18T01:20:56;8.15;;;5.05;;
65234;SDS011;51820;48.374;10.930;2022-08-18T01:23:49;9.50;;;4.40;;
65234;SDS011;51820;48.374;10.930;2022-08-18T01:26:20;8.75;;;4.75;;
65234;SDS011;51820;48.374;10.930;2022-08-18T01:28:49;8.52;;;4.90;;
65234;SDS011;51820;48.374;10.930;2022-08-18T01:31:30;8.63;;;4.50;;
65234;SDS011;51820;48.374;10.930;2022-08-18T01:34:03;9.32;;;4.45;;
65234;SDS011;51820;48.374;10.930;2022-08-18T01:36:33;7.30;;;4.03;;
65234;SDS011;51820;48.374;10.930;2022-08-18T01:39:05;8.20;;;4.60;;
65234;SDS011;51820;48.374;10.930;2022-08-18T01:41:37;9.73;;;4.40;;
65234;SDS011;51820;48.374;10.930;2022-08-18T01:44:06;8.65;;;4.57;;
65234;SDS011;51820;48.374;10.930;2022-08-18T01:46:37;10.20;;;4.40;;
65234;SDS011;51820;48.374;10.930;2022-08-18T01:49:07;7.87;;;4.60;;
65234;SDS011;51820;48.374;10.930;2022-08-18T01:51:36;8.20;;;4.85;;
65234;SDS011;51820;48.374;10.930;2022-08-18T01:54:10;9.88;;;5.20;;
65234;SDS011;51820;48.374;10.930;2022-08-18T01:56:41;8.48;;;4.82;;
65234;SDS011;51820;48.374;10.930;2022-08-18T01:59:10;10.57;;;5.30;;
65234;SDS011;51820;48.374;10.930;2022-08-18T02:01:44;10.27;;;5.60;;
65234;SDS011;51820;48.374;10.930;2022-08-18T02:04:18;10.00;;;5.43;;
65234;SDS011;51820;48.374;10.930;2022-08-18T02:07:02;9.20;;;5.60;;
65234;SDS011;51820;48.374;10.930;2022-08-18T02:09:37;9.50;;;5.55;;
65234;SDS011;51820;48.374;10.930;2022-08-18T02:12:11;8.70;;;5.40;;
65234;SDS011;51820;48.374;10.930;2022-08-18T02:14:39;11.00;;;5.90;;
65234;SDS011;51820;48.374;10.930;2022-08-18T02:17:09;11.30;;;5.60;;
65234;SDS011;51820;48.374;10.930;2022-08-18T02:19:40;9.10;;;5.40;;
65234;SDS011;51820;48.374;10.930;2022-08-18T02:22:12;9.45;;;5.20;;
65234;SDS011;51820;48.374;10.930;2022-08-18T02:24:44;10.65;;;5.25;;
65234;SDS011;51820;48.374;10.930;2022-08-18T02:27:13;10.13;;;5.83;;
65234;SDS011;51820;48.374;10.930;2022-08-18T02:29:42;10.23;;;5.25;;
65234;SDS011;51820;48.374;10.930;2022-08-18T02:32:11;8.48;;;5.38;;
65234;SDS011;51820;48.374;10.930;2022-08-18T02:34:39;9.13;;;5.30;;
65234;SDS011;51820;48.374;10.930;2022-08-18T02:37:08;11.95;;;5.78;;
65234;SDS011;51820;48.374;10.930;2022-08-18T02:39:40;8.90;;;5.50;;
65234;SDS011;51820;48.374;10.930;2022-08-18T02:42:10;9.32;;;5.70;;
65234;SDS011;51820;48.374;10.930;2022-08-18T02:44:40;9.63;;;5.70;;
65234;SDS011;51820;48.374;10.930;2022-08-18T02:47:08;12.30;;;6.80;;
65234;SDS011;51820;48.374;10.930;2022-08-18T02:49:36;11.85;;;6.88;;
65234;SDS011;51820;48.374;10.930;2022-08-18T02:52:05;13.03;;;6.97;;
65234;SDS011;51820;48.374;10.930;2022-08-18T02:54:33;12.15;;;7.00;;
65234;SDS011;51820;48.374;10.930;2022-08-18T02:57:04;12.30;;;7.13;;
65234;SDS011;51820;48.374;10.930;2022-08-18T02:59:37;12.02;;;7.50;;
65234;SDS011;51820;48.374;10.930;2022-08-18T03:02:06;10.60;;;6.70;;
65234;SDS011;51820;48.374;10.930;2022-08-18T03:04:35;12.53;;;6.37;;
65234;SDS011;51820;48.374;10.930;2022-08-18T03:07:05;10.65;;;6.78;;
65234;SDS011;51820;48.374;10.930;2022-08-18T03:09:34;11.95;;;6.78;;
65234;SDS011;51820;48.374;10.930;2022-08-18T03:12:02;12.90;;;7.20;;
65234;SDS011;51820;48.374;10.930;2022-08-18T03:14:32;12.10;;;6.75;;
65234;SDS011;51820;48.374;10.930;2022-08-18T03:17:04;12.73;;;6.33;;
65234;SDS011;51820;48.374;10.930;2022-08-18T03:19:34;11.13;;;6.70;;
65234;SDS011;51820;48.374;10.930;2022-08-18T03:22:03;10.82;;;6.57;;
65234;SDS011;51820;48.374;10.930;2022-08-18T03:24:54;10.50;;;6.18;;
65234;SDS011;51820;48.374;10.930;2022-08-18T03:27:22;11.05;;;6.28;;
65234;SDS011;51820;48.374;10.930;2022-08-18T03:29:50;15.30;;;6.37;;
65234;SDS011;51820;48.374;10.930;2022-08-18T03:32:20;10.23;;;6.05;;
65234;SDS011;51820;48.374;10.930;2022-08-18T03:34:48;11.20;;;5.95;;
65234;SDS011;51820;48.374;10.930;2022-08-18T03:37:17;10.57;;;6.00;;
65234;SDS011;51820;48.374;10.930;2022-08-18T03:39:46;11.30;;;6.43;;
65234;SDS011;51820;48.374;10.930;2022-08-18T03:42:17;10.40;;;6.20;;
65234;SDS011;51820;48.374;10.930;2022-08-18T03:44:45;10.93;;;5.63;;
65234;SDS011;51820;48.374;10.930;2022-08-18T03:47:14;12.55;;;6.40;;
65234;SDS011;51820;48.374;10.930;2022-08-18T03:49:44;10.70;;;5.88;;
65234;SDS011;51820;48.374;10.930;2022-08-18T03:52:12;9.82;;;5.93;;
65234;SDS011;51820;48.374;10.930;2022-08-18T03:54:40;10.13;;;6.20;;
65234;SDS011;51820;48.374;10.930;2022-08-18T03:57:09;9.45;;;5.63;;
65234;SDS011;51820;48.374;10.930;2022-08-18T03:59:38;10.70;;;5.78;;
65234;SDS011;51820;48.374;10.930;2022-08-18T04:02:09;8.88;;;5.32;;
65234;SDS011;51820;48.374;10.930;2022-08-18T04:04:37;10.00;;;5.78;;
65234;SDS011;51820;48.374;10.930;2022-08-18T04:07:10;9.87;;;5.63;;
65234;SDS011;51820;48.374;10.930;2022-08-18T04:09:42;10.40;;;5.97;;
65234;SDS011;51820;48.374;10.930;2022-08-18T04:12:12;9.45;;;5.68;;
65234;SDS011;51820;48.374;10.930;2022-08-18T04:14:43;9.95;;;5.60;;
65234;SDS011;51820;48.374;10.930;2022-08-18T04:17:15;9.98;;;6.15;;
65234;SDS011;51820;48.374;10.930;2022-08-18T04:19:49;10.20;;;5.40;;
65234;SDS011;51820;48.374;10.930;2022-08-18T04:22:19;10.90;;;5.47;;
65234;SDS011;51820;48.374;10.930;2022-08-18T04:24:48;9.40;;;6.13;;
65234;SDS011;51820;48.374;10.930;2022-08-18T04:27:17;10.60;;;6.00;;
65234;SDS011;51820;48.374;10.930;2022-08-18T04:29:46;10.20;;;6.40;;
65234;SDS011;51820;48.374;10.930;2022-08-18T04:32:14;10.17;;;5.90;;
65234;SDS011;51820;48.374;10.930;2022-08-18T04:34:43;9.13;;;5.45;;
65234;SDS011;51820;48.374;10.930;2022-08-18T04:37:11;12.43;;;6.40;;
65234;SDS011;51820;48.374;10.930;2022-08-18T04:39:42;10.82;;;6.38;;
65234;SDS011;51820;48.374;10.930;2022-08-18T04:42:11;11.57;;;5.75;;
65234;SDS011;51820;48.374;10.930;2022-08-18T04:44:39;9.90;;;5.97;;
65234;SDS011;51820;48.374;10.930;2022-08-18T04:47:07;12.45;;;6.15;;
65234;SDS011;51820;48.374;10.930;2022-08-18T04:49:36;8.90;;;5.57;;
65234;SDS011;51820;48.374;10.930;2022-08-18T04:52:10;10.05;;;5.97;;
65234;SDS011;51820;48.374;10.930;2022-08-18T04:55:08;11.63;;;5.50;;
65234;SDS011;51820;48.374;10.930;2022-08-18T04:57:37;9.50;;;5.73;;
65234;SDS011;51820;48.374;10.930;2022-08-18T05:00:08;10.82;;;5.88;;
65234;SDS011;51820;48.374;10.930;2022-08-18T05:02:38;9.75;;;6.07;;
65234;SDS011;51820;48.374;10.930;2022-08-18T05:05:07;10.15;;;5.55;;
65234;SDS011;51820;48.374;10.930;2022-08-18T05:07:36;10.10;;;6.38;;
65234;SDS011;51820;48.374;10.930;2022-08-18T05:10:12;10.73;;;5.57;;
65234;SDS011;51820;48.374;10.930;2022-08-18T05:12:45;11.50;;;5.60;;
65234;SDS011;51820;48.374;10.930;2022-08-18T05:15:13;9.93;;;6.10;;
65234;SDS011;51820;48.374;10.930;2022-08-18T05:17:43;12.93;;;5.90;;
65234;SDS011;51820;48.374;10.930;2022-08-18T05:20:15;13.13;;;6.50;;
65234;SDS011;51820;48.374;10.930;2022-08-18T05:22:44;11.83;;;6.00;;
65234;SDS011;51820;48.374;10.930;2022-08-18T05:25:14;11.65;;;5.82;;
65234;SDS011;51820;48.374;10.930;2022-08-18T05:27:42;11.68;;;6.00;;
65234;SDS011;51820;48.374;10.930;2022-08-18T05:30:11;9.68;;;5.93;;
65234;SDS011;51820;48.374;10.930;2022-08-18T05:32:40;9.32;;;5.53;;
65234;SDS011;51820;48.374;10.930;2022-08-18T05:35:15;9.77;;;5.60;;
65234;SDS011;51820;48.374;10.930;2022-08-18T05:38:01;9.18;;;5.15;;
65234;SDS011;51820;48.374;10.930;2022-08-18T05:40:44;9.70;;;5.07;;
65234;SDS011;51820;48.374;10.930;2022-08-18T05:43:21;9.45;;;5.07;;
65234;SDS011;51820;48.374;10.930;2022-08-18T05:45:50;10.18;;;5.57;;
65234;SDS011;51820;48.374;10.930;2022-08-18T05:48:23;10.40;;;5.67;;
65234;SDS011;51820;48.374;10.930;2022-08-18T05:50:51;12.13;;;5.40;;
65234;SDS011;51820;48.374;10.930;2022-08-18T05:53:20;9.80;;;5.55;;
65234;SDS011;51820;48.374;10.930;2022-08-18T05:56:10;11.48;;;5.15;;
65234;SDS011;51820;48.374;10.930;2022-08-18T05:59:00;10.95;;;5.25;;
65234;SDS011;51820;48.374;10.930;2022-08-18T06:01:30;8.67;;;5.30;;
65234;SDS011;51820;48.374;10.930;2022-08-18T06:04:07;11.95;;;4.82;;
65234;SDS011;51820;48.374;10.930;2022-08-18T06:06:46;11.20;;;5.35;;
65234;SDS011;51820;48.374;10.930;2022-08-18T06:09:15;11.43;;;4.53;;
65234;SDS011;51820;48.374;10.930;2022-08-18T06:11:49;8.60;;;5.10;;
65234;SDS011;51820;48.374;10.930;2022-08-18T06:14:20;10.87;;;5.30;;
65234;SDS011;51820;48.374;10.930;2022-08-18T06:16:51;9.60;;;4.95;;
65234;SDS011;51820;48.374;10.930;2022-08-18T06:19:28;9.35;;;5.30;;
65234;SDS011;51820;48.374;10.930;2022-08-18T06:22:06;9.20;;;5.15;;
65234;SDS011;51820;48.374;10.930;2022-08-18T06:24:45;10.82;;;5.50;;
65234;SDS011;51820;48.374;10.930;2022-08-18T06:27:26;9.30;;;4.77;;
65234;SDS011;51820;48.374;10.930;2022-08-18T06:30:07;10.05;;;5.45;;
65234;SDS011;51820;48.374;10.930;2022-08-18T06:32:45;11.48;;;5.30;;
65234;SDS011;51820;48.374;10.930;2022-08-18T06:35:26;9.30;;;5.65;;
65234;SDS011;51820;48.374;10.930;2022-08-18T06:38:03;9.63;;;5.88;;
65234;SDS011;51820;48.374;10.930;2022-08-18T06:41:02;9.40;;;5.23;;
65234;SDS011;51820;48.374;10.930;2022-08-18T06:43:57;10.13;;;5.00;;
65234;SDS011;51820;48.374;10.930;2022-08-18T06:46:28;11.00;;;5.90;;
65234;SDS011;51820;48.374;10.930;2022-08-18T06:49:07;11.05;;;5.38;;
65234;SDS011;51820;48.374;10.930;2022-08-18T06:51:37;10.35;;;5.68;;
65234;SDS011;51820;48.374;10.930;2022-08-18T06:54:07;9.33;;;5.60;;
65234;SDS011;51820;48.374;10.930;2022-08-18T06:56:53;9.30;;;5.13;;
65234;SDS011;51820;48.374;10.930;2022-08-18T06:59:24;10.02;;;5.40;;
65234;SDS011;51820;48.374;10.930;2022-08-18T07:01:55;9.43;;;5.22;;
65234;SDS011;51820;48.374;10.930;2022-08-18T07:07:31;10.13;;;4.87;;
65234;SDS011;51820;48.374;10.930;2022-08-18T07:10:29;10.77;;;5.40;;
65234;SDS011;51820;48.374;10.930;2022-08-18T07:13:07;9.80;;;5.75;;
65234;SDS011;51820;48.374;10.930;2022-08-18T07:15:44;9.95;;;6.13;;
65234;SDS011;51820;48.374;10.930;2022-08-18T07:18:20;9.73;;;6.20;;
65234;SDS011;51820;48.374;10.930;2022-08-18T07:20:50;11.30;;;6.13;;
65234;SDS011;51820;48.374;10.930;2022-08-18T07:23:22;11.98;;;6.22;;
65234;SDS011;51820;48.374;10.930;2022-08-18T07:25:58;10.77;;;6.45;;
65234;SDS011;51820;48.374;10.930;2022-08-18T07:28:31;9.15;;;5.65;;
65234;SDS011;51820;48.374;10.930;2022-08-18T07:31:08;11.10;;;6.50;;
65234;SDS011;51820;48.374;10.930;2022-08-18T07:33:57;11.33;;;5.93;;
65234;SDS011;51820;48.374;10.930;2022-08-18T07:36:30;10.07;;;6.40;;
65234;SDS011;51820;48.374;10.930;2022-08-18T07:39:03;11.95;;;6.70;;
65234;SDS011;51820;48.374;10.930;2022-08-18T07:41:38;11.48;;;6.13;;
65234;SDS011;51820;48.374;10.930;2022-08-18T07:44:20;11.70;;;5.85;;
65234;SDS011;51820;48.374;10.930;2022-08-18T07:46:56;10.30;;;6.40;;
65234;SDS011;51820;48.374;10.930;2022-08-18T07:49:28;10.20;;;6.28;;
65234;SDS011;51820;48.374;10.930;2022-08-18T07:52:02;10.95;;;6.95;;
65234;SDS011;51820;48.374;10.930;2022-08-18T07:54:49;14.45;;;6.90;;
65234;SDS011;51820;48.374;10.930;2022-08-18T07:57:28;11.55;;;7.20;;
65234;SDS011;51820;48.374;10.930;2022-08-18T08:00:09;13.10;;;7.50;;
65234;SDS011;51820;48.374;10.930;2022-08-18T08:03:03;9.95;;;6.40;;
65234;SDS011;51820;48.374;10.930;2022-08-18T08:05:53;12.27;;;6.53;;
65234;SDS011;51820;48.374;10.930;2022-08-18T08:08:27;13.07;;;7.63;;
65234;SDS011;51820;48.374;10.930;2022-08-18T08:11:07;15.77;;;8.48;;
65234;SDS011;51820;48.374;10.930;2022-08-18T08:13:51;13.00;;;8.00;;
65234;SDS011;51820;48.374;10.930;2022-08-18T08:16:32;12.93;;;7.95;;
65234;SDS011;51820;48.374;10.930;2022-08-18T08:19:13;10.38;;;7.35;;
65234;SDS011;51820;48.374;10.930;2022-08-18T08:22:18;11.75;;;7.60;;
65234;SDS011;51820;48.374;10.930;2022-08-18T08:24:55;11.65;;;7.80;;
65234;SDS011;51820;48.374;10.930;2022-08-18T08:27:32;12.73;;;7.40;;
65234;SDS011;51820;48.374;10.930;2022-08-18T08:30:12;12.20;;;7.57;;
65234;SDS011;51820;48.374;10.930;2022-08-18T08:32:44;10.88;;;7.78;;
65234;SDS011;51820;48.374;10.930;2022-08-18T08:35:25;12.20;;;8.00;;
65234;SDS011;51820;48.374;10.930;2022-08-18T08:38:16;11.88;;;7.57;;
65234;SDS011;51820;48.374;10.930;2022-08-18T08:41:08;15.03;;;7.70;;
65234;SDS011;51820;48.374;10.930;2022-08-18T08:43:43;16.27;;;8.40;;
65234;SDS011;51820;48.374;10.930;2022-08-18T08:46:16;20.48;;;7.78;;
65234;SDS011;51820;48.374;10.930;2022-08-18T08:48:48;13.70;;;7.70;;
65234;SDS011;51820;48.374;10.930;2022-08-18T08:51:28;12.50;;;7.72;;
65234;SDS011;51820;48.374;10.930;2022-08-18T08:54:05;11.87;;;7.93;;
65234;SDS011;51820;48.374;10.930;2022-08-18T08:56:39;13.55;;;7.75;;
65234;SDS011;51820;48.374;10.930;2022-08-18T08:59:13;14.05;;;8.55;;
65234;SDS011;51820;48.374;10.930;2022-08-18T09:01:45;30.52;;;20.02;;
65234;SDS011;51820;48.374;10.930;2022-08-18T09:04:24;36.45;;;25.17;;
65234;SDS011;51820;48.374;10.930;2022-08-18T09:07:07;12.13;;;6.90;;
65234;SDS011;51820;48.374;10.930;2022-08-18T09:09:48;10.77;;;6.95;;
65234;SDS011;51820;48.374;10.930;2022-08-18T09:12:24;9.85;;;5.82;;
65234;SDS011;51820;48.374;10.930;2022-08-18T09:15:13;9.68;;;6.32;;
65234;SDS011;51820;48.374;10.930;2022-08-18T09:17:58;10.25;;;6.68;;
65234;SDS011;51820;48.374;10.930;2022-08-18T09:20:38;10.73;;;6.73;;
65234;SDS011;51820;48.374;10.930;2022-08-18T09:23:19;12.55;;;6.75;;
65234;SDS011;51820;48.374;10.930;2022-08-18T09:25:50;10.93;;;6.22;;
65234;SDS011;51820;48.374;10.930;2022-08-18T09:28:20;10.05;;;6.20;;
65234;SDS011;51820;48.374;10.930;2022-08-18T09:31:13;12.23;;;6.60;;
65234;SDS011;51820;48.374;10.930;2022-08-18T09:36:59;10.40;;;6.40;;
65234;SDS011;51820;48.374;10.930;2022-08-18T09:39:42;12.50;;;6.13;;
65234;SDS011;51820;48.374;10.930;2022-08-18T09:42:39;12.60;;;5.38;;
65234;SDS011;51820;48.374;10.930;2022-08-18T09:48:21;9.83;;;5.33;;
65234;SDS011;51820;48.374;10.930;2022-08-18T09:50:56;9.85;;;5.85;;
65234;SDS011;51820;48.374;10.930;2022-08-18T09:59:50;10.73;;;5.97;;
65234;SDS011;51820;48.374;10.930;2022-08-18T10:05:32;10.23;;;5.63;;
65234;SDS011;51820;48.374;10.930;2022-08-18T10:10:55;10.25;;;5.85;;
65234;SDS011;51820;48.374;10.930;2022-08-18T10:13:42;11.40;;;6.00;;
65234;SDS011;51820;48.374;10.930;2022-08-18T10:16:17;11.43;;;6.17;;
65234;SDS011;51820;48.374;10.930;2022-08-18T10:18:56;9.95;;;6.07;;
65234;SDS011;51820;48.374;10.930;2022-08-18T10:24:29;10.55;;;5.85;;
65234;SDS011;51820;48.374;10.930;2022-08-18T10:27:03;11.73;;;6.10;;
65234;SDS011;51820;48.374;10.930;2022-08-18T10:32:57;13.55;;;7.57;;
65234;SDS011;51820;48.374;10.930;2022-08-18T10:38:40;11.38;;;6.25;;
65234;SDS011;51820;48.374;10.930;2022-08-18T10:41:20;12.85;;;6.65;;
65234;SDS011;51820;48.374;10.930;2022-08-18T10:43:59;11.30;;;6.53;;
65234;SDS011;51820;48.374;10.930;2022-08-18T10:46:52;10.18;;;6.45;;
65234;SDS011;51820;48.374;10.930;2022-08-18T10:49:23;9.88;;;6.38;;
65234;SDS011;51820;48.374;10.930;2022-08-18T10:52:08;10.68;;;6.72;;
65234;SDS011;51820;48.374;10.930;2022-08-18T10:55:25;12.00;;;7.00;;
65234;SDS011;51820;48.374;10.930;2022-08-18T10:58:48;11.27;;;6.60;;
65234;SDS011;51820;48.374;10.930;2022-08-18T11:01:31;11.95;;;6.70;;
65234;SDS011;51820;48.374;10.930;2022-08-18T11:04:24;11.88;;;6.68;;
65234;SDS011;51820;48.374;10.930;2022-08-18T11:07:07;11.82;;;6.93;;
65234;SDS011;51820;48.374;10.930;2022-08-18T11:09:37;11.93;;;5.95;;
65234;SDS011;51820;48.374;10.930;2022-08-18T11:12:39;10.53;;;6.53;;
65234;SDS011;51820;48.374;10.930;2022-08-18T11:15:36;9.00;;;6.45;;
65234;SDS011;51820;48.374;10.930;2022-08-18T11:18:19;9.98;;;6.43;;
65234;SDS011;51820;48.374;10.930;2022-08-18T11:21:23;11.90;;;6.65;;
65234;SDS011;51820;48.374;10.930;2022-08-18T11:24:07;9.43;;;6.25;;
65234;SDS011;51820;48.374;10.930;2022-08-18T11:26:39;13.03;;;7.10;;
65234;SDS011;51820;48.374;10.930;2022-08-18T11:29:20;13.77;;;7.10;;
65234;SDS011;51820;48.374;10.930;2022-08-18T11:32:00;11.65;;;7.15;;
65234;SDS011;51820;48.374;10.930;2022-08-18T11:34:38;11.93;;;7.10;;
65234;SDS011;51820;48.374;10.930;2022-08-18T11:37:21;10.65;;;6.65;;
65234;SDS011;51820;48.374;10.930;2022-08-18T11:40:11;9.97;;;6.13;;
65234;SDS011;51820;48.374;10.930;2022-08-18T11:43:12;9.55;;;6.20;;
65234;SDS011;51820;48.374;10.930;2022-08-18T11:45:48;8.77;;;6.05;;
65234;SDS011;51820;48.374;10.930;2022-08-18T11:48:34;10.27;;;6.60;;
65234;SDS011;51820;48.374;10.930;2022-08-18T11:51:17;13.23;;;6.82;;
65234;SDS011;51820;48.374;10.930;2022-08-18T11:53:52;14.47;;;7.10;;
65234;SDS011;51820;48.374;10.930;2022-08-18T11:56:26;11.63;;;7.07;;
65234;SDS011;51820;48.374;10.930;2022-08-18T11:59:31;9.82;;;6.68;;
65234;SDS011;51820;48.374;10.930;2022-08-18T12:02:21;11.05;;;6.68;;
65234;SDS011;51820;48.374;10.930;2022-08-18T12:04:53;8.95;;;5.50;;
65234;SDS011;51820;48.374;10.930;2022-08-18T12:07:34;10.30;;;5.30;;
65234;SDS011;51820;48.374;10.930;2022-08-18T12:10:25;8.15;;;5.47;;
65234;SDS011;51820;48.374;10.930;2022-08-18T12:12:55;9.10;;;5.18;;
65234;SDS011;51820;48.374;10.930;2022-08-18T12:15:29;8.70;;;4.90;;
65234;SDS011;51820;48.374;10.930;2022-08-18T12:18:11;10.38;;;5.70;;
65234;SDS011;51820;48.374;10.930;2022-08-18T12:20:54;11.57;;;5.27;;
65234;SDS011;51820;48.374;10.930;2022-08-18T12:23:23;8.82;;;5.03;;
65234;SDS011;51820;48.374;10.930;2022-08-18T12:26:06;9.10;;;5.28;;
65234;SDS011;51820;48.374;10.930;2022-08-18T12:28:54;9.52;;;5.15;;
65234;SDS011;51820;48.374;10.930;2022-08-18T12:31:44;10.55;;;5.47;;
65234;SDS011;51820;48.374;10.930;2022-08-18T12:34:14;13.40;;;5.67;;
65234;SDS011;51820;48.374;10.930;2022-08-18T12:36:52;9.65;;;6.07;;
65234;SDS011;51820;48.374;10.930;2022-08-18T12:39:22;9.98;;;5.45;;
65234;SDS011;51820;48.374;10.930;2022-08-18T12:41:52;10.27;;;4.65;;
65234;SDS011;51820;48.374;10.930;2022-08-18T12:44:24;10.00;;;4.85;;
65234;SDS011;51820;48.374;10.930;2022-08-18T12:46:53;10.60;;;5.20;;
65234;SDS011;51820;48.374;10.930;2022-08-18T12:49:25;8.27;;;5.35;;
65234;SDS011;51820;48.374;10.930;2022-08-18T12:51:55;9.90;;;5.57;;
65234;SDS011;51820;48.374;10.930;2022-08-18T12:54:29;10.10;;;4.90;;
65234;SDS011;51820;48.374;10.930;2022-08-18T12:57:04;10.60;;;5.40;;
65234;SDS011;51820;48.374;10.930;2022-08-18T12:59:36;11.53;;;5.43;;
65234;SDS011;51820;48.374;10.930;2022-08-18T13:02:09;10.60;;;5.47;;
65234;SDS011;51820;48.374;10.930;2022-08-18T13:04:37;10.07;;;5.47;;
65234;SDS011;51820;48.374;10.930;2022-08-18T13:07:05;8.82;;;5.47;;
65234;SDS011;51820;48.374;10.930;2022-08-18T13:09:34;9.18;;;5.25;;
65234;SDS011;51820;48.374;10.930;2022-08-18T13:12:20;9.30;;;4.70;;
65234;SDS011;51820;48.374;10.930;2022-08-18T13:14:54;9.32;;;5.22;;
65234;SDS011;51820;48.374;10.930;2022-08-18T13:17:23;10.88;;;5.00;;
65234;SDS011;51820;48.374;10.930;2022-08-18T13:19:59;9.20;;;5.22;;
65234;SDS011;51820;48.374;10.930;2022-08-18T13:22:30;7.85;;;5.10;;
65234;SDS011;51820;48.374;10.930;2022-08-18T13:24:59;10.87;;;5.03;;
65234;SDS011;51820;48.374;10.930;2022-08-18T13:27:32;9.48;;;5.20;;
65234;SDS011;51820;48.374;10.930;2022-08-18T13:30:03;10.43;;;5.50;;
65234;SDS011;51820;48.374;10.930;2022-08-18T13:32:54;10.18;;;5.60;;
65234;SDS011;51820;48.374;10.930;2022-08-18T13:35:30;9.73;;;5.63;;
65234;SDS011;51820;48.374;10.930;2022-08-18T13:38:07;8.57;;;6.17;;
65234;SDS011;51820;48.374;10.930;2022-08-18T13:40:48;10.10;;;6.32;;
65234;SDS011;51820;48.374;10.930;2022-08-18T13:43:23;9.35;;;5.90;;
65234;SDS011;51820;48.374;10.930;2022-08-18T13:45:55;10.07;;;5.20;;
65234;SDS011;51820;48.374;10.930;2022-08-18T13:48:26;11.82;;;6.07;;
65234;SDS011;51820;48.374;10.930;2022-08-18T13:51:01;8.10;;;4.93;;
65234;SDS011;51820;48.374;10.930;2022-08-18T13:53:34;8.38;;;4.82;;
65234;SDS011;51820;48.374;10.930;2022-08-18T13:56:23;8.65;;;5.03;;
65234;SDS011;51820;48.374;10.930;2022-08-18T13:58:58;9.98;;;5.70;;
65234;SDS011;51820;48.374;10.930;2022-08-18T14:01:26;9.55;;;5.03;;
65234;SDS011;51820;48.374;10.930;2022-08-18T14:04:15;8.77;;;5.70;;
65234;SDS011;51820;48.374;10.930;2022-08-18T14:06:46;8.23;;;4.90;;
65234;SDS011;51820;48.374;10.930;2022-08-18T14:09:52;8.88;;;5.60;;
65234;SDS011;51820;48.374;10.930;2022-08-18T14:12:22;12.30;;;5.90;;
65234;SDS011;51820;48.374;10.930;2022-08-18T14:14:59;9.25;;;5.30;;
65234;SDS011;51820;48.374;10.930;2022-08-18T14:17:27;10.50;;;5.47;;
65234;SDS011;51820;48.374;10.930;2022-08-18T14:19:56;9.80;;;5.28;;
65234;SDS011;51820;48.374;10.930;2022-08-18T14:22:52;10.18;;;5.68;;
65234;SDS011;51820;48.374;10.930;2022-08-18T14:25:53;8.73;;;5.18;;
65234;SDS011;51820;48.374;10.930;2022-08-18T14:28:39;8.98;;;5.28;;
65234;SDS011;51820;48.374;10.930;2022-08-18T14:31:09;9.90;;;4.63;;
65234;SDS011;51820;48.374;10.930;2022-08-18T14:33:37;10.10;;;5.13;;
65234;SDS011;51820;48.374;10.930;2022-08-18T14:36:17;9.25;;;5.28;;
65234;SDS011;51820;48.374;10.930;2022-08-18T14:38:55;13.15;;;5.50;;
65234;SDS011;51820;48.374;10.930;2022-08-18T14:41:24;11.70;;;5.60;;
65234;SDS011;51820;48.374;10.930;2022-08-18T14:43:52;9.13;;;5.57;;
65234;SDS011;51820;48.374;10.930;2022-08-18T14:46:40;20.42;;;11.43;;
65234;SDS011;51820;48.374;10.930;2022-08-18T14:49:20;21.75;;;13.32;;
65234;SDS011;51820;48.374;10.930;2022-08-18T14:51:55;15.93;;;7.80;;
65234;SDS011;51820;48.374;10.930;2022-08-18T14:54:43;8.18;;;5.75;;
65234;SDS011;51820;48.374;10.930;2022-08-18T14:57:16;9.13;;;6.03;;
65234;SDS011;51820;48.374;10.930;2022-08-18T14:59:51;9.05;;;5.43;;
65234;SDS011;51820;48.374;10.930;2022-08-18T15:02:24;8.10;;;5.20;;
65234;SDS011;51820;48.374;10.930;2022-08-18T15:04:52;11.05;;;5.28;;
65234;SDS011;51820;48.374;10.930;2022-08-18T15:07:23;11.30;;;5.53;;
65234;SDS011;51820;48.374;10.930;2022-08-18T15:09:52;10.77;;;4.73;;
65234;SDS011;51820;48.374;10.930;2022-08-18T15:12:40;10.27;;;5.80;;
65234;SDS011;51820;48.374;10.930;2022-08-18T15:15:10;10.07;;;5.93;;
65234;SDS011;51820;48.374;10.930;2022-08-18T15:17:45;8.75;;;5.90;;
65234;SDS011;51820;48.374;10.930;2022-08-18T15:20:18;12.32;;;5.57;;
65234;SDS011;51820;48.374;10.930;2022-08-18T15:23:13;10.90;;;5.50;;
65234;SDS011;51820;48.374;10.930;2022-08-18T15:26:00;10.00;;;5.43;;
65234;SDS011;51820;48.374;10.930;2022-08-18T15:28:29;10.60;;;5.75;;
65234;SDS011;51820;48.374;10.930;2022-08-18T15:30:58;9.77;;;6.30;;
65234;SDS011;51820;48.374;10.930;2022-08-18T15:33:44;12.30;;;6.38;;
65234;SDS011;51820;48.374;10.930;2022-08-18T15:36:16;10.50;;;6.27;;
65234;SDS011;51820;48.374;10.930;2022-08-18T15:38:54;9.35;;;5.90;;
65234;SDS011;51820;48.374;10.930;2022-08-18T15:41:27;8.50;;;4.97;;
65234;SDS011;51820;48.374;10.930;2022-08-18T15:44:00;11.55;;;6.20;;
65234;SDS011;51820;48.374;10.930;2022-08-18T15:46:30;10.20;;;6.00;;
65234;SDS011;51820;48.374;10.930;2022-08-18T15:49:01;10.37;;;6.10;;